createdAt,value
2019-05-02T00:02:10.675Z,99517.81
2019-05-02T00:04:45.411Z,99512.63
2019-05-02T00:07:20.218Z,99506.02
2019-05-02T00:09:51.074Z,99509.84
2019-05-02T00:12:23.563Z,99502.42
2019-05-02T00:15:01.731Z,99504.27
2019-05-02T00:17:30.767Z,99497.54
2019-05-02T00:20:02.405Z,99492.38
2019-05-02T00:22:33.977Z,99494.79
2019-05-02T00:25:11.109Z,99497.91
2019-05-02T00:27:42.307Z,99491.22
2019-05-02T00:30:15.378Z,99494.26
2019-05-02T00:32:53.181Z,99497.22
2019-05-02T00:35:22.307Z,99501.66
2019-05-02T00:37:57.336Z,99490.31
2019-05-02T00:40:27.816Z,99475.33
2019-05-02T00:42:59.650Z,99479.52
2019-05-02T00:45:31.692Z,99484.72
2019-05-02T00:48:10.828Z,99485.52
2019-05-02T00:50:45.312Z,99485.52
2019-05-02T00:53:16.012Z,99484.06
2019-05-02T00:55:49.005Z,99480.25
2019-05-02T00:58:21.155Z,99481.36
2019-05-02T01:01:10.415Z,99476.02
2019-05-02T01:03:47.069Z,99474.05
2019-05-02T01:06:17.741Z,99472.08
2019-05-02T01:08:49.505Z,99471.80
2019-05-02T01:11:21.176Z,99470.93
2019-05-02T01:13:55.745Z,99472.50
2019-05-02T01:16:26.131Z,99474.05
2019-05-02T01:18:57.959Z,99467.48
2019-05-02T01:21:34.066Z,99468.06
2019-05-02T01:24:03.294Z,99465.27
2019-05-02T01:26:40.512Z,99461.45
2019-05-02T01:29:17.010Z,99455.90
2019-05-02T01:31:54.688Z,99456.06
2019-05-02T01:34:41.930Z,99449.23
2019-05-02T01:37:21.102Z,99459.20
2019-05-02T01:39:51.472Z,99455.23
2019-05-02T01:42:23.335Z,99458.58
2019-05-02T01:44:55.403Z,99459.45
2019-05-02T01:47:29.064Z,99463.67
2019-05-02T01:50:00.564Z,99467.33
2019-05-02T01:52:33.375Z,99459.51
2019-05-02T01:55:06.939Z,99458.77
2019-05-02T01:57:44.471Z,99457.80
2019-05-02T02:00:13.369Z,99463.83
2019-05-02T02:02:44.695Z,99461.53
2019-05-02T02:05:16.883Z,99465.52
2019-05-02T02:07:50.763Z,99467.56
2019-05-02T02:10:22.248Z,99467.94
2019-05-02T02:13:03.329Z,99468.09
2019-05-02T02:15:29.132Z,99465.06
2019-05-02T02:18:01.935Z,99469.05
2019-05-02T02:20:35.537Z,99466.58
2019-05-02T02:23:10.180Z,99465.92
2019-05-02T02:25:49.708Z,99467.19
2019-05-02T02:28:21.776Z,99470.27
2019-05-02T02:30:57.683Z,99467.80
2019-05-02T02:33:27.028Z,99464.67
2019-05-02T02:35:58.783Z,99465.53
2019-05-02T02:38:33.519Z,99468.84
2019-05-02T02:41:06.338Z,99472.02
2019-05-02T02:43:37.261Z,99469.79
2019-05-02T02:46:16.717Z,99473.11
2019-05-02T02:48:48.570Z,99470.30
2019-05-02T02:51:23.582Z,99467.17
2019-05-02T02:54:02.644Z,99473.05
2019-05-02T02:56:27.242Z,99481.58
2019-05-02T02:58:59.195Z,99482.39
2019-05-02T03:01:31.340Z,99486.38
2019-05-02T03:04:09.292Z,99489.21
2019-05-02T03:06:38.290Z,99484.59
2019-05-02T03:09:09.297Z,99485.86
2019-05-02T03:11:42.927Z,99482.16
2019-05-02T03:14:22.044Z,99483.42
2019-05-02T03:16:53.932Z,99481.85
2019-05-02T03:19:25.565Z,99489.78
2019-05-02T03:22:01.621Z,99492.49
2019-05-02T03:24:36.780Z,99498.95
2019-05-02T03:27:03.818Z,99494.39
2019-05-02T03:29:41.800Z,99490.33
2019-05-02T03:32:16.128Z,99495.84
2019-05-02T03:34:48.456Z,99494.61
2019-05-02T03:37:15.981Z,99493.79
2019-05-02T03:39:56.006Z,99492.20
2019-05-02T03:42:20.733Z,99499.10
2019-05-02T03:44:56.152Z,99506.21
2019-05-02T03:47:26.679Z,99507.12
2019-05-02T03:49:58.592Z,99522.86
2019-05-02T03:52:36.533Z,99528.65
2019-05-02T03:55:05.635Z,99521.20
2019-05-02T03:57:41.672Z,99529.41
2019-05-02T04:00:13.994Z,99533.05
2019-05-02T04:02:46.304Z,99528.55
2019-05-02T04:05:18.374Z,99537.81
2019-05-02T04:07:50.859Z,99537.13
2019-05-02T04:10:44.940Z,99539.23
2019-05-02T04:13:16.889Z,99545.63
2019-05-02T04:15:48.958Z,99545.34
2019-05-02T04:18:22.398Z,99561.27
2019-05-02T04:20:54.637Z,99555.69
2019-05-02T04:23:29.883Z,99555.23
2019-05-02T04:26:06.729Z,99556.86
2019-05-02T04:28:35.751Z,99554.67
2019-05-02T04:31:07.720Z,99554.86
2019-05-02T04:33:39.384Z,99559.53
2019-05-02T04:36:15.188Z,99563.27
2019-05-02T04:38:48.703Z,99568.91
2019-05-02T04:41:28.328Z,99570.56
2019-05-02T04:43:57.344Z,99576.89
2019-05-02T04:46:28.100Z,99576.23
2019-05-02T04:48:58.941Z,99578.53
2019-05-02T04:51:32.174Z,99578.44
2019-05-02T04:54:04.006Z,99586.09
2019-05-02T04:56:42.114Z,99581.63
2019-05-02T04:59:18.121Z,99584.03
2019-05-02T05:01:52.635Z,99585.02
2019-05-02T05:04:17.776Z,99587.61
2019-05-02T05:06:56.066Z,99583.75
2019-05-02T05:09:22.313Z,99589.95
2019-05-02T05:11:58.369Z,99591.83
2019-05-02T05:14:31.364Z,99589.27
2019-05-02T05:17:00.607Z,99589.91
2019-05-02T05:19:33.192Z,99599.50
2019-05-02T05:22:06.429Z,99606.19
2019-05-02T05:24:42.387Z,99597.69
2019-05-02T05:27:18.947Z,99600.14
2019-05-02T05:29:48.557Z,99604.83
2019-05-02T05:32:21.411Z,99618.03
2019-05-02T05:34:52.950Z,99621.05
2019-05-02T05:37:25.047Z,99616.78
2019-05-02T05:39:57.994Z,99622.69
2019-05-02T05:42:33.337Z,99626.62
2019-05-02T05:45:03.905Z,99630.16
2019-05-02T05:47:37.814Z,99634.05
2019-05-02T05:50:09.886Z,99626.57
2019-05-02T05:52:42.515Z,99644.69
2019-05-02T05:55:20.606Z,99640.06
2019-05-02T05:57:49.960Z,99645.80
2019-05-02T06:00:23.383Z,99644.00
2019-05-02T06:03:01.385Z,99650.56
2019-05-02T06:05:33.230Z,99649.44
2019-05-02T06:08:02.461Z,99651.29
2019-05-02T06:10:34.396Z,99655.84
2019-05-02T06:13:10.837Z,99654.77
2019-05-02T06:15:40.462Z,99657.73
2019-05-02T06:18:12.255Z,99654.09
2019-05-02T06:20:44.941Z,99656.67
2019-05-02T06:23:16.782Z,99664.73
2019-05-02T06:25:48.875Z,99661.59
2019-05-02T06:28:20.471Z,99659.81
2019-05-02T06:30:52.503Z,99666.63
2019-05-02T06:33:25.894Z,99672.90
2019-05-02T06:36:00.864Z,99665.63
2019-05-02T06:38:30.846Z,99665.41
2019-05-02T06:41:02.897Z,99673.11
2019-05-02T06:43:34.663Z,99675.59
2019-05-02T06:46:15.970Z,99680.01
2019-05-02T06:48:40.225Z,99680.45
2019-05-02T06:51:19.481Z,99682.64
2019-05-02T06:53:48.952Z,99684.66
2019-05-02T06:56:20.831Z,99683.44
2019-05-02T06:58:52.336Z,99688.82
2019-05-02T07:01:24.518Z,99690.83
2019-05-02T07:03:56.412Z,99697.36
2019-05-02T07:06:28.531Z,99699.11
2019-05-02T07:09:00.382Z,99703.31
2019-05-02T07:11:39.023Z,99701.59
2019-05-02T07:14:13.501Z,99701.01
2019-05-02T07:16:54.620Z,99696.59
2019-05-02T07:19:29.189Z,99701.73
2019-05-02T07:22:03.991Z,99703.44
2019-05-02T07:24:34.689Z,99702.55
2019-05-02T07:27:06.642Z,99708.66
2019-05-02T07:29:38.403Z,99701.73
2019-05-02T07:32:11.001Z,99699.91
2019-05-02T07:34:44.171Z,99702.86
2019-05-02T07:37:16.041Z,99714.42
2019-05-02T07:39:47.802Z,99720.25
2019-05-02T07:42:19.785Z,99727.94
2019-05-02T07:44:51.431Z,99731.85
2019-05-02T07:47:23.344Z,99736.34
2019-05-02T07:49:55.258Z,99748.73
2019-05-02T07:52:28.865Z,99744.45
2019-05-02T07:55:01.070Z,99757.32
2019-05-02T07:57:34.139Z,99755.70
2019-05-02T08:00:14.784Z,99751.02
2019-05-02T08:02:46.875Z,99758.16
2019-05-02T08:05:21.701Z,99748.47
2019-05-02T08:07:55.044Z,99757.67
2019-05-02T08:10:25.414Z,99759.11
2019-05-02T08:12:57.103Z,99756.36
2019-05-02T08:15:28.939Z,99768.30
2019-05-02T08:18:01.125Z,99769.30
2019-05-02T08:20:33.791Z,99769.87
2019-05-02T08:23:05.443Z,99772.83
2019-05-02T08:25:41.545Z,99776.12
2019-05-02T08:28:18.408Z,99771.80
2019-05-02T08:30:51.705Z,99775.66
2019-05-02T08:33:23.779Z,99779.37
2019-05-02T08:35:55.538Z,99774.20
2019-05-02T08:38:27.488Z,99776.09
2019-05-02T08:40:59.368Z,99769.70
2019-05-02T08:43:31.378Z,99772.42
2019-05-02T08:46:03.307Z,99768.34
2019-05-02T08:48:36.424Z,99772.11
2019-05-02T08:51:08.672Z,99772.48
2019-05-02T08:53:40.752Z,99773.09
2019-05-02T08:56:16.559Z,99772.69
2019-05-02T08:58:49.871Z,99775.19
2019-05-02T09:01:19.001Z,99774.24
2019-05-02T09:03:55.462Z,99777.91
2019-05-02T09:06:24.158Z,99781.31
2019-05-02T09:08:56.124Z,99783.47
2019-05-02T09:11:28.087Z,99788.70
2019-05-02T09:14:01.942Z,99790.87
2019-05-02T09:16:33.141Z,99789.16
2019-05-02T09:19:05.872Z,99793.95
2019-05-02T09:21:37.586Z,99791.33
2019-05-02T09:24:13.623Z,99798.49
2019-05-02T09:26:42.931Z,99792.45
2019-05-02T09:29:15.021Z,99797.23
2019-05-02T09:31:46.964Z,99791.55
2019-05-02T09:34:22.702Z,99792.58
2019-05-02T09:36:52.918Z,99803.47
2019-05-02T09:39:27.323Z,99804.63
2019-05-02T09:41:59.213Z,99800.89
2019-05-02T09:44:33.120Z,99798.60
2019-05-02T09:47:06.250Z,99791.80
2019-05-02T09:49:43.575Z,99788.95
2019-05-02T09:52:11.864Z,99790.64
2019-05-02T09:54:46.111Z,99794.53
2019-05-02T09:57:17.078Z,99795.08
2019-05-02T09:59:50.647Z,99787.55
2019-05-02T10:02:25.241Z,99794.92
2019-05-02T10:04:56.577Z,99792.83
2019-05-02T10:07:28.327Z,99791.90
2019-05-02T10:10:03.264Z,99800.77
2019-05-02T10:12:35.217Z,99795.86
2019-05-02T10:15:08.974Z,99793.22
2019-05-02T10:17:44.135Z,99804.61
2019-05-02T10:20:15.425Z,99799.19
2019-05-02T10:22:47.169Z,99801.45
2019-05-02T10:25:18.814Z,99808.53
2019-05-02T10:27:52.322Z,99812.05
2019-05-02T10:30:26.268Z,99814.02
2019-05-02T10:32:57.909Z,99820.19
2019-05-02T10:35:37.464Z,99823.13
2019-05-02T10:38:04.628Z,99821.86
2019-05-02T10:40:36.258Z,99823.45
2019-05-02T10:43:08.085Z,99818.81
2019-05-02T10:45:42.514Z,99817.23
2019-05-02T10:48:24.923Z,99814.82
2019-05-02T10:50:53.330Z,99823.54
2019-05-02T10:53:25.192Z,99818.48
2019-05-02T10:55:56.789Z,99824.95
2019-05-02T10:58:32.043Z,99827.84
2019-05-02T11:01:02.338Z,99828.37
2019-05-02T11:03:43.710Z,99827.80
2019-05-02T11:06:12.530Z,99826.54
2019-05-02T11:08:46.039Z,99826.44
2019-05-02T11:11:17.754Z,99826.29
2019-05-02T11:13:53.351Z,99827.09
2019-05-02T11:16:28.966Z,99820.63
2019-05-02T11:19:02.647Z,99814.53
2019-05-02T11:21:34.217Z,99811.93
2019-05-02T11:24:06.190Z,99827.47
2019-05-02T11:26:37.751Z,99836.72
2019-05-02T11:29:09.511Z,99843.10
2019-05-02T11:31:42.741Z,99843.20
2019-05-02T11:34:14.471Z,99841.36
2019-05-02T11:36:46.423Z,99843.48
2019-05-02T11:39:26.453Z,99845.67
2019-05-02T11:41:52.743Z,99847.52
2019-05-02T11:44:24.367Z,99841.78
2019-05-02T11:46:56.146Z,99843.48
2019-05-02T11:49:28.013Z,99839.13
2019-05-02T11:52:02.291Z,99844.82
2019-05-02T11:54:32.965Z,99837.31
2019-05-02T11:57:06.263Z,99849.14
2019-05-02T11:59:37.902Z,99853.12
2019-05-02T12:02:17.495Z,99862.84
2019-05-02T12:04:47.309Z,99857.69
2019-05-02T12:07:18.036Z,99866.24
2019-05-02T12:09:52.079Z,99858.66
2019-05-02T12:12:27.234Z,99849.57
2019-05-02T12:14:56.385Z,99857.88
2019-05-02T12:17:28.227Z,99863.22
2019-05-02T12:20:02.012Z,99855.08
2019-05-02T12:22:33.284Z,99859.17
2019-05-02T12:25:05.950Z,99854.94
2019-05-02T12:27:37.505Z,99852.10
2019-05-02T12:30:09.262Z,99857.09
2019-05-02T12:32:42.735Z,99858.27
2019-05-02T12:35:14.238Z,99856.94
2019-05-02T12:37:47.120Z,99851.83
2019-05-02T12:40:18.977Z,99850.86
2019-05-02T12:42:52.479Z,99851.91
2019-05-02T12:45:23.950Z,99850.58
2019-05-02T12:47:55.813Z,99853.31
2019-05-02T12:50:27.667Z,99861.81
2019-05-02T12:52:59.443Z,99847.55
2019-05-02T12:55:32.574Z,99855.58
2019-05-02T12:58:04.620Z,99848.52
2019-05-02T13:00:35.833Z,99849.50
2019-05-02T13:03:09.151Z,99845.28
2019-05-02T13:05:42.597Z,99851.13
2019-05-02T13:08:14.295Z,99848.58
2019-05-02T13:11:01.917Z,99853.56
2019-05-02T13:13:27.151Z,99857.23
2019-05-02T13:16:00.716Z,99860.11
2019-05-02T13:18:36.467Z,99869.90
2019-05-02T13:21:08.064Z,99863.19
2019-05-02T13:23:42.563Z,99871.84
2019-05-02T13:26:19.746Z,99857.99
2019-05-02T13:28:46.923Z,99857.77
2019-05-02T13:31:25.869Z,99851.05
2019-05-02T13:34:06.465Z,99852.30
2019-05-02T13:36:45.482Z,99860.09
2019-05-02T13:39:30.132Z,99854.41
2019-05-02T13:42:02.102Z,99849.63
2019-05-02T13:44:35.175Z,99847.99
2019-05-02T13:47:08.784Z,99846.31
2019-05-02T13:49:53.563Z,99841.21
2019-05-02T13:52:14.149Z,99849.11
2019-05-02T13:54:46.416Z,99844.25
2019-05-02T13:57:18.465Z,99842.68
2019-05-02T13:59:52.384Z,99848.13
2019-05-02T14:02:43.146Z,99845.45
2019-05-02T14:05:16.316Z,99849.61
2019-05-02T14:07:55.687Z,99857.60
2019-05-02T14:10:24.547Z,99860.16
2019-05-02T14:13:00.488Z,99855.65
2019-05-02T14:15:33.700Z,99853.31
2019-05-02T14:18:07.080Z,99851.59
2019-05-02T14:20:38.961Z,99847.67
2019-05-02T14:23:12.139Z,99845.91
2019-05-02T14:25:43.898Z,99834.98
2019-05-02T14:28:15.765Z,99839.48
2019-05-02T14:30:47.448Z,99833.02
2019-05-02T14:33:23.054Z,99833.58
2019-05-02T14:35:54.348Z,99831.38
2019-05-02T14:38:26.212Z,99840.20
2019-05-02T14:41:03.040Z,99824.55
2019-05-02T14:43:53.185Z,99834.77
2019-05-02T14:46:37.369Z,99829.80
2019-05-02T14:48:59.563Z,99832.52
2019-05-02T14:51:33.101Z,99828.22
2019-05-02T14:54:08.476Z,99827.86
2019-05-02T14:56:47.672Z,99822.77
2019-05-02T14:59:20.121Z,99816.55
2019-05-02T15:01:58.039Z,99823.45
2019-05-02T15:04:28.217Z,99822.34
2019-05-02T15:07:02.036Z,99822.08
2019-05-02T15:09:36.078Z,99823.70
2019-05-02T15:12:14.250Z,99810.99
2019-05-02T15:14:40.634Z,99818.80
2019-05-02T15:17:12.373Z,99822.91
2019-05-02T15:19:44.066Z,99831.02
2019-05-02T15:22:16.119Z,99823.77
2019-05-02T15:24:47.977Z,99823.73
2019-05-02T15:27:19.844Z,99822.43
2019-05-02T15:29:53.930Z,99828.66
2019-05-02T15:32:26.233Z,99814.09
2019-05-02T15:34:59.637Z,99817.69
2019-05-02T15:37:32.165Z,99821.53
2019-05-02T15:42:42.225Z,99826.54
2019-05-02T15:45:14.271Z,99823.28
2019-05-02T15:47:46.017Z,99820.42
2019-05-02T15:50:21.907Z,99822.80
2019-05-02T15:52:57.213Z,99816.55
2019-05-02T15:55:26.730Z,99823.78
2019-05-02T15:57:58.590Z,99824.39
2019-05-02T16:00:32.288Z,99832.23
2019-05-02T16:03:04.547Z,99828.81
2019-05-02T16:05:36.675Z,99840.58
2019-05-02T16:08:09.629Z,99844.97
2019-05-02T16:10:42.840Z,99848.35
2019-05-02T16:13:17.081Z,99858.25
2019-05-02T16:15:47.864Z,99859.22
2019-05-02T16:18:21.539Z,99874.35
2019-05-02T16:21:06.940Z,99874.05
2019-05-02T16:23:35.183Z,99876.95
2019-05-02T16:26:06.446Z,99867.41
2019-05-02T16:28:44.144Z,99866.42
2019-05-02T16:31:12.634Z,99875.21
2019-05-02T16:33:44.429Z,99879.52
2019-05-02T16:36:16.304Z,99873.66
2019-05-02T16:38:47.967Z,99883.58
2019-05-02T16:41:21.715Z,99883.59
2019-05-02T16:43:53.973Z,99882.71
2019-05-02T16:46:26.831Z,99891.16
2019-05-02T16:48:58.391Z,99895.89
2019-05-02T16:51:32.281Z,99902.33
2019-05-02T16:54:05.277Z,99908.97
2019-05-02T16:56:37.099Z,99913.68
2019-05-02T16:59:08.910Z,99915.45
2019-05-02T17:01:42.433Z,99920.39
2019-05-02T17:04:13.748Z,99921.04
2019-05-02T17:06:46.203Z,99931.14
2019-05-02T17:09:33.296Z,99927.36
2019-05-02T17:12:06.565Z,99935.70
2019-05-02T17:14:37.402Z,99940.62
2019-05-02T17:17:09.065Z,99942.27
2019-05-02T17:19:40.928Z,99936.90
2019-05-02T17:22:16.758Z,99945.92
2019-05-02T17:24:46.922Z,99953.05
2019-05-02T17:27:20.503Z,99955.84
2019-05-02T17:29:59.465Z,99963.48
2019-05-02T17:32:28.834Z,99967.30
2019-05-02T17:35:02.576Z,99969.19
2019-05-02T17:37:33.604Z,99975.17
2019-05-02T17:40:06.838Z,99975.69
2019-05-02T17:42:38.459Z,99981.83
2019-05-02T17:45:11.094Z,99986.35
2019-05-02T17:47:43.216Z,99992.70
2019-05-02T17:50:26.956Z,99996.33
2019-05-02T17:53:01.174Z,99998.30
2019-05-02T17:55:40.251Z,100004.11
2019-05-02T17:58:12.519Z,100010.13
2019-05-02T18:00:47.341Z,100010.17
2019-05-02T18:03:24.067Z,100014.02
2019-05-02T18:05:53.010Z,100017.08
2019-05-02T18:08:27.104Z,100012.28
2019-05-02T18:11:00.665Z,100018.55
2019-05-02T18:13:33.977Z,100018.86
2019-05-02T18:16:07.789Z,100026.41
2019-05-02T18:18:43.664Z,100024.80
2019-05-02T18:21:17.045Z,100028.90
2019-05-02T18:23:46.182Z,100022.75
2019-05-02T18:26:18.006Z,100038.48
2019-05-02T18:28:49.943Z,100038.22
2019-05-02T18:31:21.792Z,100041.11
2019-05-02T18:33:54.125Z,100046.48
2019-05-02T18:36:27.015Z,100041.02
2019-05-02T18:39:00.617Z,100042.89
2019-05-02T18:41:37.362Z,100047.13
2019-05-02T18:44:06.901Z,100053.28
2019-05-02T18:46:41.583Z,100059.00
2019-05-02T18:49:16.835Z,100062.00
2019-05-02T18:51:48.281Z,100062.88
2019-05-02T18:54:19.044Z,100063.70
2019-05-02T18:56:55.035Z,100056.20
2019-05-02T18:59:27.022Z,100060.81
2019-05-02T19:01:59.559Z,100070.86
2019-05-02T19:04:38.137Z,100070.86
2019-05-02T19:07:07.514Z,100066.91
2019-05-02T19:09:49.069Z,100072.97
2019-05-02T19:12:19.445Z,100071.44
2019-05-02T19:14:46.233Z,100068.93
2019-05-02T19:17:21.821Z,100072.84
2019-05-02T19:19:53.035Z,100073.33
2019-05-02T19:22:24.720Z,100069.19
2019-05-02T19:24:56.918Z,100059.62
2019-05-02T19:27:48.512Z,100061.14
2019-05-02T19:30:32.606Z,100068.59
2019-05-02T19:33:07.874Z,100067.66
2019-05-02T19:35:43.175Z,100065.62
2019-05-02T19:38:11.965Z,100066.73
2019-05-02T19:40:44.731Z,100068.64
2019-05-02T19:43:16.595Z,100068.91
2019-05-02T19:45:52.584Z,100062.22
2019-05-02T19:48:22.657Z,100065.75
2019-05-02T19:50:54.850Z,100075.22
2019-05-02T19:53:26.612Z,100090.09
2019-05-02T19:56:01.303Z,100106.88
2019-05-02T19:58:36.648Z,100118.28
2019-05-02T20:01:06.647Z,100115.42
2019-05-02T20:03:38.241Z,100100.74
2019-05-02T20:06:10.006Z,100089.27
2019-05-02T20:08:42.041Z,100091.27
2019-05-02T20:11:13.941Z,100099.70
2019-05-02T20:13:45.965Z,100121.08
2019-05-02T20:16:31.984Z,100117.08
2019-05-02T20:19:05.320Z,100120.39
2019-05-02T20:21:47.346Z,100110.22
2019-05-02T20:24:19.669Z,100103.30
2019-05-02T20:26:54.676Z,100111.20
2019-05-02T20:29:24.733Z,100107.98
2019-05-02T20:31:56.716Z,100105.59
2019-05-02T20:34:28.681Z,100106.97
2019-05-02T20:37:00.683Z,100108.08
2019-05-02T20:39:32.420Z,100099.19
2019-05-02T20:42:04.258Z,100102.44
2019-05-02T20:44:38.493Z,100105.14
2019-05-02T20:47:12.145Z,100105.72
2019-05-02T20:49:44.056Z,100114.85
2019-05-02T20:52:16.140Z,100109.19
2019-05-02T20:54:47.807Z,100097.33
2019-05-02T20:57:19.455Z,100105.41
2019-05-02T20:59:52.491Z,100116.19
2019-05-02T21:02:24.623Z,100110.80
2019-05-02T21:04:55.840Z,100117.83
2019-05-02T21:07:33.073Z,100115.44
2019-05-02T21:10:09.637Z,100108.45
2019-05-02T21:12:41.930Z,100102.00
2019-05-02T21:15:14.056Z,100102.55
2019-05-02T21:17:45.618Z,100102.84
2019-05-02T21:20:17.479Z,100100.71
2019-05-02T21:22:49.139Z,100095.35
2019-05-02T21:25:23.012Z,100092.16
2019-05-02T21:27:54.730Z,100095.11
2019-05-02T21:30:27.699Z,100099.98
2019-05-02T21:32:59.840Z,100104.03
2019-05-02T21:35:31.948Z,100101.89
2019-05-02T21:38:04.104Z,100102.95
2019-05-02T21:40:35.968Z,100093.80
2019-05-02T21:43:07.730Z,100087.31
2019-05-02T21:45:39.769Z,100090.01
2019-05-02T21:48:11.630Z,100096.73
2019-05-02T21:50:56.834Z,100092.99
2019-05-02T21:53:55.008Z,100093.28
2019-05-02T21:56:23.706Z,100089.03
2019-05-02T21:59:09.080Z,100092.00
2019-05-02T22:01:51.980Z,100093.34
2019-05-02T22:04:24.875Z,100094.97
2019-05-02T22:06:56.970Z,100090.37
2019-05-02T22:09:28.598Z,100093.81
2019-05-02T22:12:00.603Z,100091.06
2019-05-02T22:14:32.943Z,100092.93
2019-05-02T22:17:04.831Z,100098.53
2019-05-02T22:19:36.562Z,100099.84
2019-05-02T22:22:08.658Z,100110.91
2019-05-02T22:24:42.166Z,100117.12
2019-05-02T22:27:13.925Z,100121.44
2019-05-02T22:29:45.961Z,100131.38
2019-05-02T22:32:17.849Z,100122.44
2019-05-02T22:34:49.813Z,100117.02
2019-05-02T22:37:23.218Z,100118.03
2019-05-02T22:39:56.712Z,100113.46
2019-05-02T22:42:28.783Z,100108.90
2019-05-02T22:45:01.668Z,100116.50
2019-05-02T22:47:33.958Z,100107.40
2019-05-02T22:50:07.468Z,100114.77
2019-05-02T22:52:39.101Z,100111.83
2019-05-02T22:55:11.950Z,100115.16
2019-05-02T22:57:44.022Z,100118.16
2019-05-02T23:00:16.237Z,100119.56
2019-05-02T23:02:47.859Z,100108.27
2019-05-02T23:05:19.756Z,100130.62
2019-05-02T23:07:52.680Z,100124.18
2019-05-02T23:10:24.728Z,100140.56
2019-05-02T23:12:56.359Z,100131.97
2019-05-02T23:15:28.028Z,100129.27
2019-05-02T23:18:01.689Z,100127.64
2019-05-02T23:20:33.483Z,100130.84
2019-05-02T23:23:05.245Z,100127.02
2019-05-02T23:25:54.075Z,100117.84
2019-05-02T23:28:27.515Z,100126.06
2019-05-02T23:30:59.582Z,100120.35
2019-05-02T23:33:49.059Z,100121.38
2019-05-02T23:36:20.924Z,100121.87
2019-05-02T23:38:52.684Z,100118.39
2019-05-02T23:41:24.757Z,100114.88
2019-05-02T23:43:56.609Z,100117.09
2019-05-02T23:46:28.544Z,100112.31
2019-05-02T23:49:02.017Z,100103.76
2019-05-02T23:51:33.838Z,100101.14
2019-05-02T23:54:05.975Z,100102.00
2019-05-02T23:56:37.740Z,100097.77
2019-05-02T23:59:11.718Z,100100.75
